Time;durP1;ratioP1;P1;durP2;ratioP2;P2;SDS_P1;SDS_P2;PMS_P1;PMS_P2;Temp;Humidity;BMP_temperature;BMP_pressure;BME280_temperature;BME280_humidity;BME280_pressure;Samples;Min_cycle;Max_cycle;Signal;HPM_P1;HPM_P2
2022/12/29 00:01:16;;;;;;;;;;;6.80;88.90;;;;;;5032388;28;19948;-86
2022/12/29 00:03:41;;;;;;;;;;;6.80;89.20;;;;;;5033078;28;19940;-86
2022/12/29 00:06:07;;;;;;;;;;;6.80;89.30;;;;;;5032643;28;20035;-86
2022/12/29 00:08:39;;;;;;;;;;;6.90;89.20;;;;;;5030505;28;20397;-86
2022/12/29 00:11:12;;;;;;;;;;;6.90;89.00;;;;;;5032558;28;19945;-86
2022/12/29 00:16:21;;;;;;;;;;;6.90;88.50;;;;;;5032506;28;19984;-86
2022/12/29 00:18:47;;;;;;;;;;;6.90;88.80;;;;;;5032113;28;19946;-86
2022/12/29 00:35:10;;;;;;;;;;;7.10;87.20;;;;;;5032581;28;19954;-86
2022/12/29 00:45:59;;;;;;;;;;;6.60;89.50;;;;;;5033014;28;20465;-86
2022/12/29 00:51:09;;;;;;;;;;;6.60;89.90;;;;;;5032657;28;20358;-86
2022/12/29 00:53:34;;;;;;;;;;;6.80;89.90;;;;;;5013762;28;19964;-86
2022/12/29 00:56:00;;;;;;;;;;;7.10;89.60;;;;;;5032492;28;19938;-86
2022/12/29 00:58:29;;;;;;;;;;;7.20;88.60;;;;;;5031990;28;19947;-86
2022/12/29 01:01:01;;;;;;;;;;;7.10;88.30;;;;;;5034103;28;19986;-86
2022/12/29 01:03:27;;;;;;;;;;;7.10;88.40;;;;;;5035415;28;19949;-86
2022/12/29 01:05:52;;;;;;;;;;;7.20;88.10;;;;;;5035695;28;20067;-86
2022/12/29 01:08:18;;;;;;;;;;;7.30;87.80;;;;;;5034715;28;20434;-86
2022/12/29 01:10:44;;;;;;;;;;;7.20;87.80;;;;;;5036030;28;19945;-86
2022/12/29 01:13:09;;;;;;;;;;;7.20;87.70;;;;;;5035148;28;19942;-86
2022/12/29 01:15:34;;;;;;;;;;;7.10;87.50;;;;;;5035678;28;20322;-86
2022/12/29 01:18:00;;;;;;;;;;;7.00;87.40;;;;;;5017475;28;19943;-86
2022/12/29 01:20:27;;;;;;;;;;;6.90;88.00;;;;;;5035424;28;19980;-86
2022/12/29 01:22:52;;;;;;;;;;;6.80;88.50;;;;;;5035094;28;19941;-86
2022/12/29 01:25:18;;;;;;;;;;;6.80;88.90;;;;;;5035723;28;19949;-86
2022/12/29 01:27:43;;;;;;;;;;;6.80;88.80;;;;;;5034920;28;19931;-86
2022/12/29 01:30:09;;;;;;;;;;;6.80;89.00;;;;;;5035603;28;19962;-86
2022/12/29 01:32:35;;;;;;;;;;;6.70;89.30;;;;;;5035614;28;20402;-86
2022/12/29 01:35:00;;;;;;;;;;;6.70;89.40;;;;;;5034267;28;19984;-86
2022/12/29 01:37:26;;;;;;;;;;;6.70;89.20;;;;;;5035158;28;20021;-86
2022/12/29 01:39:51;;;;;;;;;;;6.60;89.00;;;;;;5034364;28;20279;-86
2022/12/29 01:42:18;;;;;;;;;;;6.50;89.20;;;;;;5035410;28;20463;-86
2022/12/29 01:44:52;;;;;;;;;;;6.40;89.40;;;;;;5034547;28;20431;-86
2022/12/29 01:47:25;;;;;;;;;;;6.40;89.70;;;;;;5035292;28;19945;-86
2022/12/29 01:49:53;;;;;;;;;;;6.40;89.90;;;;;;5034429;28;19990;-86
2022/12/29 01:52:18;;;;;;;;;;;6.30;90.40;;;;;;5034856;28;20003;-86
2022/12/29 01:54:48;;;;;;;;;;;6.30;90.70;;;;;;5033714;28;20349;-86
2022/12/29 01:57:16;;;;;;;;;;;6.20;90.90;;;;;;5035382;28;19975;-86
2022/12/29 01:59:45;;;;;;;;;;;6.20;91.10;;;;;;5034347;28;19983;-86
2022/12/29 02:02:11;;;;;;;;;;;6.20;91.10;;;;;;5035020;28;19941;-86
2022/12/29 02:04:40;;;;;;;;;;;6.30;91.00;;;;;;5002285;28;20435;-86
2022/12/29 02:07:09;;;;;;;;;;;6.20;91.30;;;;;;5015184;28;20411;-86
2022/12/29 02:09:34;;;;;;;;;;;6.20;91.60;;;;;;5029868;28;19948;-86
2022/12/29 02:12:00;;;;;;;;;;;6.30;91.70;;;;;;5033393;28;20309;-86
2022/12/29 02:14:26;;;;;;;;;;;6.40;91.30;;;;;;5033899;28;19948;-86
2022/12/29 02:17:03;;;;;;;;;;;6.40;91.00;;;;;;5034812;28;19944;-86
2022/12/29 02:19:47;;;;;;;;;;;6.40;90.70;;;;;;5033979;28;20035;-86
2022/12/29 02:22:21;;;;;;;;;;;6.40;89.80;;;;;;5034636;28;19945;-86
2022/12/29 02:24:52;;;;;;;;;;;6.40;89.70;;;;;;5033343;28;19959;-86
2022/12/29 02:27:18;;;;;;;;;;;6.60;89.70;;;;;;5034573;28;20296;-86
2022/12/29 02:29:58;;;;;;;;;;;6.80;89.00;;;;;;5032850;28;19969;-86
2022/12/29 02:32:36;;;;;;;;;;;6.90;88.80;;;;;;5034676;28;19949;-86
2022/12/29 02:35:07;;;;;;;;;;;6.90;88.70;;;;;;5034470;28;19943;-86
2022/12/29 02:37:38;;;;;;;;;;;6.90;88.40;;;;;;5034692;28;19948;-86
2022/12/29 02:40:22;;;;;;;;;;;6.90;88.70;;;;;;5032974;28;19945;-86
2022/12/29 02:42:57;;;;;;;;;;;7.00;87.80;;;;;;5034297;28;19947;-86
2022/12/29 02:45:30;;;;;;;;;;;7.00;87.80;;;;;;5034577;28;19995;-87
2022/12/29 02:48:07;;;;;;;;;;;7.10;87.90;;;;;;5033362;28;19943;-86
2022/12/29 02:50:34;;;;;;;;;;;7.10;87.10;;;;;;5034103;28;20467;-86
2022/12/29 02:53:02;;;;;;;;;;;7.00;87.50;;;;;;5033329;28;20394;-87
2022/12/29 02:55:27;;;;;;;;;;;7.00;87.80;;;;;;5033596;28;19944;-86
2022/12/29 02:58:08;;;;;;;;;;;7.30;87.20;;;;;;5033221;28;19954;-86
2022/12/29 03:00:35;;;;;;;;;;;7.40;86.30;;;;;;5033504;28;19957;-86
2022/12/29 03:03:11;;;;;;;;;;;7.30;86.00;;;;;;5034014;28;19950;-86
2022/12/29 03:05:45;;;;;;;;;;;7.20;86.20;;;;;;5033858;28;19995;-86
2022/12/29 03:08:14;;;;;;;;;;;7.10;86.60;;;;;;5032431;28;19949;-86
2022/12/29 03:10:58;;;;;;;;;;;6.90;87.30;;;;;;5033657;28;19960;-86
2022/12/29 03:16:28;;;;;;;;;;;6.70;88.10;;;;;;5057502;23;20042;-86
2022/12/29 03:19:12;;;;;;;;;;;6.60;88.20;;;;;;5053578;28;19961;-86
2022/12/29 03:24:32;;;;;;;;;;;6.60;88.90;;;;;;5033270;28;20440;-86
2022/12/29 03:26:59;;;;;;;;;;;6.90;88.80;;;;;;5033501;28;19937;-86
2022/12/29 03:29:27;;;;;;;;;;;6.90;88.30;;;;;;5033637;28;19974;-86
2022/12/29 03:31:54;;;;;;;;;;;6.90;88.30;;;;;;5035360;28;19939;-87
2022/12/29 03:34:20;;;;;;;;;;;6.90;88.20;;;;;;5052639;28;20007;-86
2022/12/29 03:36:54;;;;;;;;;;;6.80;88.40;;;;;;5049257;28;19948;-86
2022/12/29 03:39:21;;;;;;;;;;;6.80;88.60;;;;;;5033297;28;19946;-86
2022/12/29 03:41:48;;;;;;;;;;;6.80;88.40;;;;;;5033244;28;20026;-86
2022/12/29 03:44:14;;;;;;;;;;;6.90;88.50;;;;;;5033296;28;19967;-86
2022/12/29 03:46:39;;;;;;;;;;;7.00;88.50;;;;;;5033230;28;19963;-87
2022/12/29 03:49:05;;;;;;;;;;;7.10;88.00;;;;;;5043309;28;19963;-86
2022/12/29 03:51:30;;;;;;;;;;;7.20;87.50;;;;;;5053062;28;19945;-86
2022/12/29 03:53:56;;;;;;;;;;;7.20;86.70;;;;;;5034620;28;20328;-86
2022/12/29 03:56:21;;;;;;;;;;;7.00;87.50;;;;;;5033103;28;19966;-86
2022/12/29 03:58:47;;;;;;;;;;;7.00;87.90;;;;;;5033358;28;19936;-87
2022/12/29 04:01:12;;;;;;;;;;;6.90;87.90;;;;;;5033050;28;20394;-86
2022/12/29 04:03:38;;;;;;;;;;;7.00;88.30;;;;;;5033067;28;19940;-86
2022/12/29 04:06:04;;;;;;;;;;;7.00;88.00;;;;;;5033033;28;20447;-86
2022/12/29 04:08:29;;;;;;;;;;;6.90;88.30;;;;;;5032981;28;19950;-86
2022/12/29 04:10:55;;;;;;;;;;;6.80;88.70;;;;;;5016666;28;19948;-86
2022/12/29 04:13:20;;;;;;;;;;;6.80;89.10;;;;;;5013203;28;19938;-86
2022/12/29 04:15:46;;;;;;;;;;;6.50;89.30;;;;;;5013120;28;20059;-86
2022/12/29 04:18:11;;;;;;;;;;;6.40;89.60;;;;;;5013222;28;20510;-86
2022/12/29 04:23:21;;;;;;;;;;;6.30;90.20;;;;;;5013227;28;19943;-86
2022/12/29 04:25:47;;;;;;;;;;;6.40;90.30;;;;;;5013187;28;19947;-86
2022/12/29 04:28:13;;;;;;;;;;;6.40;90.00;;;;;;5013415;28;19952;-86
2022/12/29 04:30:38;;;;;;;;;;;6.40;90.10;;;;;;5012951;28;19961;-86
2022/12/29 04:33:04;;;;;;;;;;;6.50;90.40;;;;;;5013115;28;19956;-86
2022/12/29 04:35:29;;;;;;;;;;;6.60;90.70;;;;;;5014002;28;20029;-86
2022/12/29 04:37:55;;;;;;;;;;;6.70;90.80;;;;;;5034395;28;19992;-86
2022/12/29 04:40:20;;;;;;;;;;;6.90;90.50;;;;;;5036593;28;20098;-86
2022/12/29 04:42:46;;;;;;;;;;;6.90;90.40;;;;;;5036653;28;19960;-87
2022/12/29 04:45:11;;;;;;;;;;;6.90;90.40;;;;;;5036524;28;19935;-86
2022/12/29 04:47:37;;;;;;;;;;;6.90;90.40;;;;;;5036504;28;19941;-86
2022/12/29 04:50:03;;;;;;;;;;;6.90;90.30;;;;;;5018635;28;19959;-86
2022/12/29 04:52:28;;;;;;;;;;;6.90;90.20;;;;;;5036365;28;19955;-86
2022/12/29 04:54:54;;;;;;;;;;;6.90;89.90;;;;;;5036302;28;19976;-86
2022/12/29 04:57:19;;;;;;;;;;;6.90;89.90;;;;;;5036623;28;19949;-86
2022/12/29 04:59:45;;;;;;;;;;;6.80;90.30;;;;;;5036273;28;19947;-86
2022/12/29 05:02:10;;;;;;;;;;;6.80;89.90;;;;;;5036272;28;19942;-86
2022/12/29 05:04:36;;;;;;;;;;;6.80;89.70;;;;;;5036229;28;19941;-86
2022/12/29 05:07:01;;;;;;;;;;;6.80;89.50;;;;;;5016728;28;19956;-86
2022/12/29 05:09:27;;;;;;;;;;;6.80;89.40;;;;;;5016284;28;19965;-86
2022/12/29 05:11:52;;;;;;;;;;;6.80;89.30;;;;;;5016295;28;20045;-86
2022/12/29 05:14:18;;;;;;;;;;;6.80;89.10;;;;;;5016126;28;20039;-86
2022/12/29 05:16:43;;;;;;;;;;;6.90;89.30;;;;;;4998684;28;20013;-86
2022/12/29 05:19:09;;;;;;;;;;;6.90;89.30;;;;;;5016150;28;20030;-86
2022/12/29 05:21:34;;;;;;;;;;;6.90;89.10;;;;;;5016343;28;20060;-86
2022/12/29 05:24:00;;;;;;;;;;;6.90;89.10;;;;;;5016112;28;20032;-86
2022/12/29 05:26:26;;;;;;;;;;;6.90;88.90;;;;;;5016009;28;19935;-87
2022/12/29 05:28:52;;;;;;;;;;;6.90;88.80;;;;;;5015910;28;19958;-87
2022/12/29 05:31:17;;;;;;;;;;;6.90;88.80;;;;;;5015848;28;20028;-86
2022/12/29 05:33:43;;;;;;;;;;;6.90;88.20;;;;;;5015861;28;19989;-86
2022/12/29 05:36:09;;;;;;;;;;;6.90;88.10;;;;;;5027022;28;20146;-87
2022/12/29 05:38:35;;;;;;;;;;;6.80;88.40;;;;;;5035569;28;19945;-87
2022/12/29 05:41:00;;;;;;;;;;;6.70;88.60;;;;;;5035530;28;19969;-86
2022/12/29 05:43:26;;;;;;;;;;;6.60;88.70;;;;;;5035485;28;19940;-87
2022/12/29 05:45:52;;;;;;;;;;;6.50;89.20;;;;;;5035921;28;20295;-86
2022/12/29 05:48:17;;;;;;;;;;;6.60;89.20;;;;;;5035252;28;19948;-86
2022/12/29 05:50:46;;;;;;;;;;;6.50;89.10;;;;;;5034946;28;19958;-86
2022/12/29 05:53:12;;;;;;;;;;;6.40;89.40;;;;;;5035147;28;19960;-86
2022/12/29 05:55:37;;;;;;;;;;;6.40;89.50;;;;;;5035089;28;20014;-86
2022/12/29 05:58:03;;;;;;;;;;;6.40;89.80;;;;;;5027922;28;19948;-86
2022/12/29 06:00:28;;;;;;;;;;;6.40;89.90;;;;;;5015336;28;19942;-86
2022/12/29 06:02:54;;;;;;;;;;;6.30;89.90;;;;;;5015294;28;19947;-86
2022/12/29 06:05:19;;;;;;;;;;;6.30;90.10;;;;;;4997683;28;19948;-86
2022/12/29 06:07:45;;;;;;;;;;;6.30;90.10;;;;;;5015189;28;19942;-86
2022/12/29 06:10:10;;;;;;;;;;;6.30;90.50;;;;;;5015127;28;20490;-86
2022/12/29 06:12:36;;;;;;;;;;;6.30;90.90;;;;;;5015122;28;20406;-86
2022/12/29 06:15:02;;;;;;;;;;;6.40;90.70;;;;;;5014931;28;20056;-86
2022/12/29 06:17:27;;;;;;;;;;;6.30;90.60;;;;;;5015057;28;20034;-86
2022/12/29 06:19:53;;;;;;;;;;;6.40;90.90;;;;;;5015053;28;19940;-86
2022/12/29 06:22:18;;;;;;;;;;;6.40;90.80;;;;;;5014951;28;19947;-86
2022/12/29 06:24:44;;;;;;;;;;;6.40;90.60;;;;;;5015227;28;19948;-86
2022/12/29 06:27:09;;;;;;;;;;;6.50;90.60;;;;;;5021305;28;19946;-86
2022/12/29 06:29:36;;;;;;;;;;;6.40;90.60;;;;;;5034186;28;19969;-86
2022/12/29 06:32:03;;;;;;;;;;;6.40;90.40;;;;;;5025754;28;19944;-86
2022/12/29 06:34:29;;;;;;;;;;;6.50;90.10;;;;;;5024881;28;19948;-86
2022/12/29 06:36:54;;;;;;;;;;;6.40;90.20;;;;;;5026610;28;19943;-86
2022/12/29 06:39:20;;;;;;;;;;;6.50;90.40;;;;;;5037853;28;19950;-86
2022/12/29 06:41:45;;;;;;;;;;;6.40;90.40;;;;;;5027983;28;19964;-86
2022/12/29 06:44:11;;;;;;;;;;;6.30;90.60;;;;;;5030808;28;19987;-86
2022/12/29 06:46:36;;;;;;;;;;;6.20;91.00;;;;;;5031716;28;20033;-86
2022/12/29 06:49:02;;;;;;;;;;;6.20;91.70;;;;;;5032179;28;20097;-87
2022/12/29 06:51:27;;;;;;;;;;;6.30;91.60;;;;;;5024738;28;20012;-86
2022/12/29 06:53:53;;;;;;;;;;;6.40;91.30;;;;;;5032882;28;19956;-86
2022/12/29 06:56:18;;;;;;;;;;;6.50;90.90;;;;;;5020202;28;20023;-86
2022/12/29 06:58:44;;;;;;;;;;;6.50;90.40;;;;;;5028969;28;20323;-86
2022/12/29 07:01:09;;;;;;;;;;;6.50;90.20;;;;;;5031728;28;20421;-86
2022/12/29 07:03:35;;;;;;;;;;;6.50;89.70;;;;;;5015161;28;20433;-86
2022/12/29 07:06:00;;;;;;;;;;;6.50;89.50;;;;;;5021204;28;19997;-86
2022/12/29 07:08:26;;;;;;;;;;;6.50;89.30;;;;;;5027975;28;19988;-86
2022/12/29 07:10:52;;;;;;;;;;;6.40;89.60;;;;;;5030597;28;19968;-86
2022/12/29 07:13:17;;;;;;;;;;;6.40;89.60;;;;;;5018050;28;19955;-86
2022/12/29 07:15:43;;;;;;;;;;;6.20;89.90;;;;;;5029798;28;19978;-86
2022/12/29 07:18:08;;;;;;;;;;;6.10;90.40;;;;;;5019276;28;20037;-86
2022/12/29 07:20:34;;;;;;;;;;;6.10;90.60;;;;;;5017453;28;19946;-86
2022/12/29 07:22:59;;;;;;;;;;;6.10;90.90;;;;;;5025553;28;19989;-86
2022/12/29 07:25:25;;;;;;;;;;;6.20;91.20;;;;;;5025165;28;19956;-86
2022/12/29 07:27:51;;;;;;;;;;;6.30;91.50;;;;;;5025687;28;19948;-86
2022/12/29 07:30:16;;;;;;;;;;;6.40;91.70;;;;;;5023953;28;19965;-86
2022/12/29 07:32:42;;;;;;;;;;;6.40;91.70;;;;;;5015323;28;19954;-86
2022/12/29 07:35:08;;;;;;;;;;;6.40;91.60;;;;;;5027424;28;19939;-86
2022/12/29 07:37:34;;;;;;;;;;;6.40;91.70;;;;;;5031244;28;20037;-86
2022/12/29 07:40:00;;;;;;;;;;;6.50;91.70;;;;;;5032142;28;19989;-87
2022/12/29 07:42:25;;;;;;;;;;;6.40;91.80;;;;;;5030175;28;19945;-86
2022/12/29 07:44:51;;;;;;;;;;;6.40;92.00;;;;;;5033281;28;20393;-87
2022/12/29 07:47:16;;;;;;;;;;;6.60;92.20;;;;;;5017828;28;19951;-87
2022/12/29 07:49:42;;;;;;;;;;;6.80;92.10;;;;;;5024138;28;20064;-87
2022/12/29 07:52:07;;;;;;;;;;;7.10;92.00;;;;;;5016931;28;19965;-86
2022/12/29 07:54:33;;;;;;;;;;;7.50;91.00;;;;;;5022377;28;19954;-87
2022/12/29 07:57:00;;;;;;;;;;;7.60;89.40;;;;;;5022073;28;20408;-86
2022/12/29 07:59:25;;;;;;;;;;;7.50;88.60;;;;;;5033101;28;19946;-86
2022/12/29 08:01:51;;;;;;;;;;;7.40;88.70;;;;;;5023106;28;19953;-87
2022/12/29 08:04:16;;;;;;;;;;;7.40;88.90;;;;;;5028667;28;20322;-86
2022/12/29 08:06:42;;;;;;;;;;;7.30;89.20;;;;;;5031621;28;20398;-86
2022/12/29 08:09:08;;;;;;;;;;;7.30;89.50;;;;;;5018211;28;19956;-87
2022/12/29 08:11:33;;;;;;;;;;;7.10;90.10;;;;;;5031306;28;19949;-87
2022/12/29 08:13:59;;;;;;;;;;;7.20;90.30;;;;;;5033904;28;19980;-87
2022/12/29 08:16:24;;;;;;;;;;;7.20;90.40;;;;;;5032849;28;19988;-87
2022/12/29 08:18:50;;;;;;;;;;;7.40;90.50;;;;;;5034647;28;19944;-87
2022/12/29 08:21:15;;;;;;;;;;;7.70;90.10;;;;;;5026899;28;20286;-87
2022/12/29 08:23:41;;;;;;;;;;;7.90;89.00;;;;;;5031911;28;19948;-87
2022/12/29 08:26:06;;;;;;;;;;;7.90;88.50;;;;;;5033026;28;19943;-87
2022/12/29 08:28:32;;;;;;;;;;;7.90;88.50;;;;;;5017139;28;19959;-87
2022/12/29 08:30:58;;;;;;;;;;;8.00;88.50;;;;;;5031069;28;20098;-86
2022/12/29 08:33:25;;;;;;;;;;;7.90;87.90;;;;;;5035502;28;20427;-87
2022/12/29 08:35:50;;;;;;;;;;;7.80;88.10;;;;;;5030133;28;19945;-86
2022/12/29 08:38:17;;;;;;;;;;;7.80;88.60;;;;;;5031546;28;19945;-86
2022/12/29 08:40:42;;;;;;;;;;;7.80;88.90;;;;;;5019693;28;19943;-86
2022/12/29 08:43:08;;;;;;;;;;;7.80;89.10;;;;;;5027877;28;19944;-87
2022/12/29 08:45:33;;;;;;;;;;;7.70;89.00;;;;;;5019382;28;20388;-87
2022/12/29 08:47:59;;;;;;;;;;;7.80;89.30;;;;;;5025314;28;19949;-87
2022/12/29 08:50:24;;;;;;;;;;;7.70;89.30;;;;;;5035730;28;19962;-87
2022/12/29 08:52:50;;;;;;;;;;;7.70;89.40;;;;;;5031406;28;20003;-87
2022/12/29 08:55:16;;;;;;;;;;;7.70;89.50;;;;;;5027862;28;19952;-87
2022/12/29 08:57:41;;;;;;;;;;;7.80;89.50;;;;;;5034541;28;19950;-87
2022/12/29 09:00:07;;;;;;;;;;;7.90;89.00;;;;;;5040861;28;19965;-86
2022/12/29 09:02:33;;;;;;;;;;;8.00;88.20;;;;;;5031174;28;19946;-87
2022/12/29 09:04:59;;;;;;;;;;;8.00;87.70;;;;;;5026727;28;19947;-87
2022/12/29 09:07:25;;;;;;;;;;;8.10;88.20;;;;;;5033190;28;19977;-87
2022/12/29 09:09:51;;;;;;;;;;;8.10;88.20;;;;;;5034895;28;20011;-86
2022/12/29 09:12:17;;;;;;;;;;;8.00;88.40;;;;;;5029328;28;20018;-87
2022/12/29 09:14:44;;;;;;;;;;;8.00;88.50;;;;;;5034441;28;20473;-87
2022/12/29 09:19:53;;;;;;;;;;;8.40;88.70;;;;;;5033942;28;19953;-87
2022/12/29 09:22:19;;;;;;;;;;;8.70;87.30;;;;;;5023360;28;19946;-87
2022/12/29 09:24:44;;;;;;;;;;;8.80;86.70;;;;;;5029745;28;19945;-87
2022/12/29 09:27:10;;;;;;;;;;;8.80;85.90;;;;;;5021739;28;19941;-87
2022/12/29 09:29:36;;;;;;;;;;;8.80;84.30;;;;;;5024187;28;19976;-87
2022/12/29 09:32:01;;;;;;;;;;;8.80;84.30;;;;;;5029353;28;20057;-86
2022/12/29 09:34:27;;;;;;;;;;;9.00;83.50;;;;;;5033614;28;20232;-87
2022/12/29 09:36:52;;;;;;;;;;;9.10;83.20;;;;;;5021057;28;19953;-86
2022/12/29 09:39:18;;;;;;;;;;;9.20;82.90;;;;;;5022801;28;19996;-87
2022/12/29 09:42:01;;;;;;;;;;;9.20;82.70;;;;;;5029455;28;20316;-87
2022/12/29 09:44:57;;;;;;;;;;;9.10;82.60;;;;;;5029898;28;19991;-87
2022/12/29 09:47:23;;;;;;;;;;;9.10;82.50;;;;;;5006233;28;20076;-87
2022/12/29 09:49:49;;;;;;;;;;;9.40;81.90;;;;;;5025302;28;20062;-87
2022/12/29 09:52:20;;;;;;;;;;;9.70;81.10;;;;;;5025596;28;20429;-87
2022/12/29 09:54:46;;;;;;;;;;;9.70;81.00;;;;;;5033583;28;19945;-87
2022/12/29 09:57:16;;;;;;;;;;;9.50;80.80;;;;;;5031314;28;19954;-86
2022/12/29 09:59:43;;;;;;;;;;;9.40;81.00;;;;;;5029906;28;19948;-86
2022/12/29 10:02:28;;;;;;;;;;;9.30;81.20;;;;;;5029551;28;19941;-86
2022/12/29 10:04:53;;;;;;;;;;;9.40;80.90;;;;;;5029921;28;20057;-87
2022/12/29 10:07:22;;;;;;;;;;;9.40;81.00;;;;;;5030729;28;20025;-87
2022/12/29 10:10:01;;;;;;;;;;;9.60;81.30;;;;;;5019372;28;19997;-87
2022/12/29 10:12:29;;;;;;;;;;;9.70;81.00;;;;;;5001123;28;19971;-87
2022/12/29 10:14:58;;;;;;;;;;;9.90;80.30;;;;;;5027457;28;20026;-87
2022/12/29 10:17:36;;;;;;;;;;;9.90;80.00;;;;;;5025919;28;19947;-87
2022/12/29 10:20:10;;;;;;;;;;;9.80;80.30;;;;;;5024691;28;19954;-86
2022/12/29 10:22:53;;;;;;;;;;;9.70;80.90;;;;;;5016801;28;20466;-87
2022/12/29 10:25:20;;;;;;;;;;;9.60;81.20;;;;;;5027371;28;19950;-87
2022/12/29 10:27:50;;;;;;;;;;;9.50;81.60;;;;;;5021812;28;19948;-86
2022/12/29 10:30:16;;;;;;;;;;;9.70;81.10;;;;;;5015175;28;20470;-86
2022/12/29 10:32:51;;;;;;;;;;;9.70;81.00;;;;;;5031642;28;19950;-86
2022/12/29 10:35:21;;;;;;;;;;;9.50;80.90;;;;;;5032363;28;19948;-86
2022/12/29 10:38:06;;;;;;;;;;;9.50;81.00;;;;;;5023404;28;20026;-86
2022/12/29 10:40:43;;;;;;;;;;;9.60;81.10;;;;;;5023711;28;19946;-87
2022/12/29 10:43:28;;;;;;;;;;;9.50;81.40;;;;;;5024453;28;20015;-87
2022/12/29 10:45:56;;;;;;;;;;;9.40;81.50;;;;;;5024608;28;19939;-87
2022/12/29 10:48:24;;;;;;;;;;;9.50;81.60;;;;;;5032512;28;19997;-87
2022/12/29 10:50:50;;;;;;;;;;;9.60;81.50;;;;;;5031286;28;20422;-87
2022/12/29 10:53:19;;;;;;;;;;;9.70;81.50;;;;;;5021537;28;19966;-87
2022/12/29 10:55:45;;;;;;;;;;;9.90;80.20;;;;;;5029772;28;19969;-87
2022/12/29 10:58:13;;;;;;;;;;;9.90;80.30;;;;;;5026705;28;20040;-87
2022/12/29 11:00:39;;;;;;;;;;;10.10;78.70;;;;;;5027153;28;19946;-86
2022/12/29 11:03:07;;;;;;;;;;;10.10;78.40;;;;;;5032162;28;19953;-86
2022/12/29 11:05:35;;;;;;;;;;;10.30;77.80;;;;;;5027996;28;19947;-86
2022/12/29 11:08:02;;;;;;;;;;;10.40;78.00;;;;;;5032055;28;19951;-86
2022/12/29 11:10:28;;;;;;;;;;;10.40;77.70;;;;;;5031030;28;19969;-86
2022/12/29 11:12:55;;;;;;;;;;;10.30;78.00;;;;;;5027437;28;19941;-87
2022/12/29 11:15:20;;;;;;;;;;;10.30;78.20;;;;;;5043582;22;19980;-87
2022/12/29 11:17:55;;;;;;;;;;;10.40;78.10;;;;;;5033700;28;20431;-87
2022/12/29 11:20:29;;;;;;;;;;;10.30;78.20;;;;;;5051679;28;20412;-87
2022/12/29 11:22:55;;;;;;;;;;;10.30;78.40;;;;;;5045229;28;19972;-87
2022/12/29 11:25:21;;;;;;;;;;;10.30;78.40;;;;;;5044932;28;20039;-87
2022/12/29 11:27:55;;;;;;;;;;;10.30;78.50;;;;;;5041009;28;19953;-87
2022/12/29 11:30:24;;;;;;;;;;;10.30;78.70;;;;;;5050521;28;20454;-87
2022/12/29 11:32:51;;;;;;;;;;;10.30;78.50;;;;;;5052462;28;19939;-87
2022/12/29 11:35:29;;;;;;;;;;;10.40;78.10;;;;;;5047881;28;19944;-87
2022/12/29 11:37:57;;;;;;;;;;;10.70;76.50;;;;;;5042021;28;19944;-87
2022/12/29 11:40:23;;;;;;;;;;;10.70;77.20;;;;;;5045171;28;19953;-86
2022/12/29 11:42:53;;;;;;;;;;;10.70;76.90;;;;;;5051343;28;19945;-87
2022/12/29 11:45:20;;;;;;;;;;;10.80;75.90;;;;;;5051752;28;19951;-87
2022/12/29 11:47:53;;;;;;;;;;;10.90;75.80;;;;;;5033315;28;19944;-87
2022/12/29 11:50:23;;;;;;;;;;;10.70;76.80;;;;;;5033445;28;20416;-87
2022/12/29 11:52:50;;;;;;;;;;;10.70;76.10;;;;;;5033185;28;19956;-87
2022/12/29 11:55:21;;;;;;;;;;;10.70;76.10;;;;;;5049080;28;20458;-87
2022/12/29 11:57:47;;;;;;;;;;;10.70;76.30;;;;;;5053078;28;19986;-87
2022/12/29 12:00:20;;;;;;;;;;;11.00;75.40;;;;;;5053030;28;19944;-87
2022/12/29 12:02:52;;;;;;;;;;;11.30;74.00;;;;;;5053029;28;19944;-87
2022/12/29 12:05:36;;;;;;;;;;;11.40;73.30;;;;;;5052999;28;19951;-87
2022/12/29 12:08:07;;;;;;;;;;;11.50;73.20;;;;;;5052331;28;19943;-87
2022/12/29 12:10:42;;;;;;;;;;;11.50;72.90;;;;;;5052376;28;19965;-87
2022/12/29 12:13:14;;;;;;;;;;;11.50;73.20;;;;;;5052761;28;19946;-87
2022/12/29 12:15:41;;;;;;;;;;;11.40;73.80;;;;;;5052175;28;19974;-86
2022/12/29 12:18:13;;;;;;;;;;;11.40;73.60;;;;;;5049207;28;19946;-86
2022/12/29 12:20:39;;;;;;;;;;;11.30;73.60;;;;;;5047860;28;20316;-86
2022/12/29 12:23:18;;;;;;;;;;;11.10;73.60;;;;;;5052247;28;19945;-87
2022/12/29 12:26:00;;;;;;;;;;;11.00;74.10;;;;;;5047540;28;19964;-86
2022/12/29 12:28:35;;;;;;;;;;;11.10;74.40;;;;;;5036688;28;20004;-87
2022/12/29 12:31:01;;;;;;;;;;;11.10;74.40;;;;;;5046179;28;19962;-87
2022/12/29 12:33:26;;;;;;;;;;;11.10;74.80;;;;;;5052308;28;19946;-87
2022/12/29 12:36:07;;;;;;;;;;;11.10;74.80;;;;;;5052315;28;19948;-87
2022/12/29 12:38:32;;;;;;;;;;;11.10;74.70;;;;;;5052326;28;19950;-87
2022/12/29 12:41:00;;;;;;;;;;;11.00;74.70;;;;;;5052117;28;19956;-87
2022/12/29 12:43:29;;;;;;;;;;;11.10;74.90;;;;;;5052591;28;20016;-87
2022/12/29 12:46:00;;;;;;;;;;;11.20;74.30;;;;;;5052268;28;20002;-86
2022/12/29 12:48:44;;;;;;;;;;;11.30;73.80;;;;;;5051937;28;19951;-86
2022/12/29 12:51:21;;;;;;;;;;;11.10;73.90;;;;;;5049285;28;20005;-86
2022/12/29 12:53:59;;;;;;;;;;;10.90;74.10;;;;;;5050421;28;19961;-86
2022/12/29 12:56:25;;;;;;;;;;;10.70;74.20;;;;;;5034787;28;19946;-87
2022/12/29 12:58:53;;;;;;;;;;;10.60;75.10;;;;;;5051527;28;19991;-87
2022/12/29 13:01:32;;;;;;;;;;;10.60;75.10;;;;;;5052977;28;19952;-87
2022/12/29 13:04:07;;;;;;;;;;;10.60;76.10;;;;;;5054594;28;19955;-87
2022/12/29 13:06:39;;;;;;;;;;;10.50;76.10;;;;;;5053975;28;19950;-87
2022/12/29 13:09:14;;;;;;;;;;;10.50;76.30;;;;;;5054634;28;19951;-87
2022/12/29 13:11:55;;;;;;;;;;;10.50;76.10;;;;;;5055345;28;19945;-87
2022/12/29 13:14:21;;;;;;;;;;;10.80;75.90;;;;;;5053638;28;20303;-86
2022/12/29 13:16:59;;;;;;;;;;;10.70;76.30;;;;;;5054675;28;19947;-86
2022/12/29 13:19:30;;;;;;;;;;;10.70;76.00;;;;;;5049740;28;20466;-86
2022/12/29 13:22:04;;;;;;;;;;;10.70;75.50;;;;;;5053386;28;19951;-87
2022/12/29 13:24:29;;;;;;;;;;;10.60;75.90;;;;;;5054824;28;19949;-86
2022/12/29 13:27:09;;;;;;;;;;;10.60;76.30;;;;;;5054054;28;19949;-87
2022/12/29 13:29:43;;;;;;;;;;;10.50;76.60;;;;;;5054133;28;19959;-87
2022/12/29 13:32:12;;;;;;;;;;;10.40;76.70;;;;;;5054595;28;19943;-87
2022/12/29 13:34:48;;;;;;;;;;;10.40;77.10;;;;;;5054620;28;19990;-87
2022/12/29 13:37:16;;;;;;;;;;;10.50;77.50;;;;;;5046596;28;20006;-87
2022/12/29 13:39:51;;;;;;;;;;;10.70;76.60;;;;;;5053370;28;19950;-87
2022/12/29 13:42:18;;;;;;;;;;;10.70;76.30;;;;;;5053484;28;20358;-87
2022/12/29 13:44:48;;;;;;;;;;;10.70;76.50;;;;;;5054498;28;19948;-87
2022/12/29 13:47:14;;;;;;;;;;;10.70;76.60;;;;;;5050389;28;20390;-87
2022/12/29 13:49:39;;;;;;;;;;;10.60;76.60;;;;;;5051866;28;19958;-87
2022/12/29 13:52:31;;;;;;;;;;;10.50;76.90;;;;;;5051816;28;20027;-87
2022/12/29 13:55:02;;;;;;;;;;;10.50;77.20;;;;;;5047923;28;20517;-87
2022/12/29 13:57:45;;;;;;;;;;;10.50;77.20;;;;;;5053261;28;19947;-86
2022/12/29 14:00:16;;;;;;;;;;;10.40;77.40;;;;;;5051294;28;19940;-86
2022/12/29 14:02:41;;;;;;;;;;;10.40;78.00;;;;;;5052233;28;19945;-86
2022/12/29 14:05:22;;;;;;;;;;;10.40;78.20;;;;;;5053126;28;20356;-87
2022/12/29 14:07:58;;;;;;;;;;;10.30;78.70;;;;;;5051286;28;19954;-87
2022/12/29 14:10:33;;;;;;;;;;;10.30;79.30;;;;;;5045136;28;19959;-87
2022/12/29 14:13:04;;;;;;;;;;;10.40;79.80;;;;;;5045295;28;19970;-87
2022/12/29 14:15:30;;;;;;;;;;;10.40;79.30;;;;;;5053292;28;20429;-87
2022/12/29 14:18:05;;;;;;;;;;;10.40;79.00;;;;;;5052415;28;19954;-87
2022/12/29 14:20:30;;;;;;;;;;;10.40;78.20;;;;;;5051850;28;20451;-87
2022/12/29 14:22:56;;;;;;;;;;;10.40;78.50;;;;;;5053469;28;19947;-87
2022/12/29 14:25:40;;;;;;;;;;;10.50;77.90;;;;;;5052091;28;19947;-87
2022/12/29 14:28:15;;;;;;;;;;;10.40;78.00;;;;;;5050844;28;20017;-87
2022/12/29 14:30:48;;;;;;;;;;;10.40;78.30;;;;;;5048908;28;19957;-87
2022/12/29 14:33:14;;;;;;;;;;;10.50;77.40;;;;;;5051911;28;20309;-86
2022/12/29 14:35:45;;;;;;;;;;;10.60;77.60;;;;;;5049168;28;19949;-86
2022/12/29 14:38:31;;;;;;;;;;;10.50;77.70;;;;;;5052945;28;20394;-87
2022/12/29 14:41:16;;;;;;;;;;;10.50;78.20;;;;;;5052016;28;19996;-87
2022/12/29 14:43:51;;;;;;;;;;;10.40;78.30;;;;;;5052268;28;20426;-87
2022/12/29 14:46:16;;;;;;;;;;;10.40;78.60;;;;;;5050651;28;20036;-87
2022/12/29 14:48:43;;;;;;;;;;;10.40;78.80;;;;;;5053059;28;20057;-87
2022/12/29 14:51:27;;;;;;;;;;;10.30;79.70;;;;;;5053424;28;19964;-87
2022/12/29 14:53:52;;;;;;;;;;;10.30;79.90;;;;;;5052921;28;20072;-87
2022/12/29 14:56:25;;;;;;;;;;;10.30;80.40;;;;;;5050221;28;20037;-87
2022/12/29 14:58:52;;;;;;;;;;;10.20;80.30;;;;;;5034820;28;19972;-87
2022/12/29 15:01:22;;;;;;;;;;;10.20;80.00;;;;;;5052958;28;19954;-86
2022/12/29 15:03:51;;;;;;;;;;;10.30;80.10;;;;;;5035591;28;19944;-86
2022/12/29 15:06:21;;;;;;;;;;;10.30;80.30;;;;;;5050348;28;20502;-86
2022/12/29 15:08:54;;;;;;;;;;;10.30;81.00;;;;;;5052906;28;19946;-86
2022/12/29 15:11:21;;;;;;;;;;;10.20;80.80;;;;;;5052055;28;19952;-86
2022/12/29 15:13:48;;;;;;;;;;;10.10;81.00;;;;;;5052905;28;19946;-87